sensor_id;sensor_type;location;lat;lon;timestamp;temperature;humidity
47162;DHT22;32921;53.256;8.198;2022-09-27T00:00:37;10.80;99.90
47162;DHT22;32921;53.256;8.198;2022-09-27T00:03:03;10.80;99.90
47162;DHT22;32921;53.256;8.198;2022-09-27T00:05:29;10.80;99.90
47162;DHT22;32921;53.256;8.198;2022-09-27T00:07:55;10.80;99.90
47162;DHT22;32921;53.256;8.198;2022-09-27T00:10:21;10.80;99.90
47162;DHT22;32921;53.256;8.198;2022-09-27T00:12:46;10.80;99.90
47162;DHT22;32921;53.256;8.198;2022-09-27T00:15:13;10.90;99.90
47162;DHT22;32921;53.256;8.198;2022-09-27T00:17:39;10.90;99.90
47162;DHT22;32921;53.256;8.198;2022-09-27T00:20:05;10.90;99.90
47162;DHT22;32921;53.256;8.198;2022-09-27T00:22:31;10.90;99.90
47162;DHT22;32921;53.256;8.198;2022-09-27T00:24:57;10.90;99.90
47162;DHT22;32921;53.256;8.198;2022-09-27T00:27:24;11.00;99.90
47162;DHT22;32921;53.256;8.198;2022-09-27T00:29:50;10.90;99.90
47162;DHT22;32921;53.256;8.198;2022-09-27T00:32:16;11.00;99.90
47162;DHT22;32921;53.256;8.198;2022-09-27T00:34:41;10.90;99.90
47162;DHT22;32921;53.256;8.198;2022-09-27T00:37:08;10.90;99.90
47162;DHT22;32921;53.256;8.198;2022-09-27T00:39:34;10.90;99.90
47162;DHT22;32921;53.256;8.198;2022-09-27T00:41:59;10.90;99.90
47162;DHT22;32921;53.256;8.198;2022-09-27T00:47:04;10.80;99.90
47162;DHT22;32921;53.256;8.198;2022-09-27T00:49:44;10.80;99.90
47162;DHT22;32921;53.256;8.198;2022-09-27T00:52:20;10.80;99.90
47162;DHT22;32921;53.256;8.198;2022-09-27T00:54:53;10.80;99.90
47162;DHT22;32921;53.256;8.198;2022-09-27T00:57:21;10.70;99.90
47162;DHT22;32921;53.256;8.198;2022-09-27T00:59:51;10.70;99.90
47162;DHT22;32921;53.256;8.198;2022-09-27T01:02:18;10.70;99.90
47162;DHT22;32921;53.256;8.198;2022-09-27T01:04:44;10.70;99.90
47162;DHT22;32921;53.256;8.198;2022-09-27T01:07:12;10.70;99.90
47162;DHT22;32921;53.256;8.198;2022-09-27T01:09:37;10.70;99.90
47162;DHT22;32921;53.256;8.198;2022-09-27T01:15:16;10.60;99.90
47162;DHT22;32921;53.256;8.198;2022-09-27T01:21:08;10.50;99.90
47162;DHT22;32921;53.256;8.198;2022-09-27T01:40:22;10.40;99.90
47162;DHT22;32921;53.256;8.198;2022-09-27T01:43:19;10.40;99.90
47162;DHT22;32921;53.256;8.198;2022-09-27T01:45:57;10.40;99.90
47162;DHT22;32921;53.256;8.198;2022-09-27T01:48:27;10.40;99.90
47162;DHT22;32921;53.256;8.198;2022-09-27T01:53:57;10.40;99.90
47162;DHT22;32921;53.256;8.198;2022-09-27T01:56:37;10.40;99.90
47162;DHT22;32921;53.256;8.198;2022-09-27T01:59:08;10.30;99.90
47162;DHT22;32921;53.256;8.198;2022-09-27T02:01:36;10.40;99.90
47162;DHT22;32921;53.256;8.198;2022-09-27T02:04:04;10.40;99.90
47162;DHT22;32921;53.256;8.198;2022-09-27T02:06:38;10.40;99.90
47162;DHT22;32921;53.256;8.198;2022-09-27T02:09:15;10.30;99.90
47162;DHT22;32921;53.256;8.198;2022-09-27T02:11:47;10.30;99.90
47162;DHT22;32921;53.256;8.198;2022-09-27T02:14:39;10.40;99.90
47162;DHT22;32921;53.256;8.198;2022-09-27T02:23:14;10.30;99.90
47162;DHT22;32921;53.256;8.198;2022-09-27T02:28:27;10.20;99.90
47162;DHT22;32921;53.256;8.198;2022-09-27T02:30:55;10.20;99.90
47162;DHT22;32921;53.256;8.198;2022-09-27T02:33:25;10.20;99.90
47162;DHT22;32921;53.256;8.198;2022-09-27T02:35:52;10.20;99.90
47162;DHT22;32921;53.256;8.198;2022-09-27T02:38:18;10.20;99.90
47162;DHT22;32921;53.256;8.198;2022-09-27T02:40:46;10.30;99.90
47162;DHT22;32921;53.256;8.198;2022-09-27T02:43:14;10.20;99.90
47162;DHT22;32921;53.256;8.198;2022-09-27T02:51:33;10.30;99.90
47162;DHT22;32921;53.256;8.198;2022-09-27T03:02:31;10.30;99.90
47162;DHT22;32921;53.256;8.198;2022-09-27T03:05:21;10.30;99.90
47162;DHT22;32921;53.256;8.198;2022-09-27T03:07:48;10.40;99.90
47162;DHT22;32921;53.256;8.198;2022-09-27T03:10:20;10.40;99.90
47162;DHT22;32921;53.256;8.198;2022-09-27T03:12:46;10.30;99.90
47162;DHT22;32921;53.256;8.198;2022-09-27T03:15:12;10.30;99.90
47162;DHT22;32921;53.256;8.198;2022-09-27T03:17:38;10.40;99.90
47162;DHT22;32921;53.256;8.198;2022-09-27T03:20:04;10.40;99.90
47162;DHT22;32921;53.256;8.198;2022-09-27T03:22:29;10.40;99.90
47162;DHT22;32921;53.256;8.198;2022-09-27T03:24:55;10.40;99.90
47162;DHT22;32921;53.256;8.198;2022-09-27T03:27:21;10.40;99.90
47162;DHT22;32921;53.256;8.198;2022-09-27T03:29:47;10.40;99.90
47162;DHT22;32921;53.256;8.198;2022-09-27T03:32:12;10.40;99.90
47162;DHT22;32921;53.256;8.198;2022-09-27T03:34:38;10.30;99.90
47162;DHT22;32921;53.256;8.198;2022-09-27T03:37:04;10.30;99.90
47162;DHT22;32921;53.256;8.198;2022-09-27T03:39:29;10.30;99.90
47162;DHT22;32921;53.256;8.198;2022-09-27T03:41:55;10.40;99.90
47162;DHT22;32921;53.256;8.198;2022-09-27T03:44:21;10.30;99.90
47162;DHT22;32921;53.256;8.198;2022-09-27T03:46:47;10.30;99.90
47162;DHT22;32921;53.256;8.198;2022-09-27T03:49:12;10.30;99.90
47162;DHT22;32921;53.256;8.198;2022-09-27T03:51:38;10.30;99.90
47162;DHT22;32921;53.256;8.198;2022-09-27T03:54:03;10.30;99.90
47162;DHT22;32921;53.256;8.198;2022-09-27T03:56:29;10.30;99.90
47162;DHT22;32921;53.256;8.198;2022-09-27T03:58:54;10.30;99.90
47162;DHT22;32921;53.256;8.198;2022-09-27T04:01:20;10.20;99.90
47162;DHT22;32921;53.256;8.198;2022-09-27T04:03:46;10.20;99.90
47162;DHT22;32921;53.256;8.198;2022-09-27T04:06:11;10.20;99.90
47162;DHT22;32921;53.256;8.198;2022-09-27T04:08:38;10.10;99.90
47162;DHT22;32921;53.256;8.198;2022-09-27T04:11:03;10.10;99.90
47162;DHT22;32921;53.256;8.198;2022-09-27T04:13:29;10.20;99.90
47162;DHT22;32921;53.256;8.198;2022-09-27T04:15:55;10.20;99.90
47162;DHT22;32921;53.256;8.198;2022-09-27T04:18:20;10.20;99.90
47162;DHT22;32921;53.256;8.198;2022-09-27T04:20:46;10.20;99.90
47162;DHT22;32921;53.256;8.198;2022-09-27T04:23:12;10.10;99.90
47162;DHT22;32921;53.256;8.198;2022-09-27T04:25:37;10.20;99.90
47162;DHT22;32921;53.256;8.198;2022-09-27T04:28:04;10.10;99.90
47162;DHT22;32921;53.256;8.198;2022-09-27T04:30:30;10.10;99.90
47162;DHT22;32921;53.256;8.198;2022-09-27T04:32:56;10.10;99.90
47162;DHT22;32921;53.256;8.198;2022-09-27T04:35:21;10.10;99.90
47162;DHT22;32921;53.256;8.198;2022-09-27T04:38:06;10.20;99.90
47162;DHT22;32921;53.256;8.198;2022-09-27T04:40:35;10.20;99.90
47162;DHT22;32921;53.256;8.198;2022-09-27T04:43:00;10.20;99.90
47162;DHT22;32921;53.256;8.198;2022-09-27T04:45:28;10.10;99.90
47162;DHT22;32921;53.256;8.198;2022-09-27T04:47:53;10.10;99.90
47162;DHT22;32921;53.256;8.198;2022-09-27T04:50:19;10.10;99.90
47162;DHT22;32921;53.256;8.198;2022-09-27T04:52:49;10.10;99.90
47162;DHT22;32921;53.256;8.198;2022-09-27T04:55:16;10.10;99.90
47162;DHT22;32921;53.256;8.198;2022-09-27T04:57:41;10.00;99.90
47162;DHT22;32921;53.256;8.198;2022-09-27T05:00:08;10.00;99.90
47162;DHT22;32921;53.256;8.198;2022-09-27T05:02:33;10.00;99.90
47162;DHT22;32921;53.256;8.198;2022-09-27T05:04:59;10.00;99.90
47162;DHT22;32921;53.256;8.198;2022-09-27T05:07:26;10.00;99.90
47162;DHT22;32921;53.256;8.198;2022-09-27T05:09:52;10.00;99.90
47162;DHT22;32921;53.256;8.198;2022-09-27T05:12:18;10.00;99.90
47162;DHT22;32921;53.256;8.198;2022-09-27T05:14:43;9.90;99.90
47162;DHT22;32921;53.256;8.198;2022-09-27T05:17:09;9.90;99.90
47162;DHT22;32921;53.256;8.198;2022-09-27T05:19:35;10.00;99.90
47162;DHT22;32921;53.256;8.198;2022-09-27T05:22:04;10.00;99.90
47162;DHT22;32921;53.256;8.198;2022-09-27T05:24:30;10.00;99.90
47162;DHT22;32921;53.256;8.198;2022-09-27T05:26:58;10.00;99.90
47162;DHT22;32921;53.256;8.198;2022-09-27T05:29:23;10.00;99.90
47162;DHT22;32921;53.256;8.198;2022-09-27T05:31:49;10.00;99.90
47162;DHT22;32921;53.256;8.198;2022-09-27T05:34:15;10.10;99.90
47162;DHT22;32921;53.256;8.198;2022-09-27T05:36:42;10.00;99.90
47162;DHT22;32921;53.256;8.198;2022-09-27T05:39:08;10.00;99.90
47162;DHT22;32921;53.256;8.198;2022-09-27T05:41:33;10.10;99.90
47162;DHT22;32921;53.256;8.198;2022-09-27T05:43:59;10.10;99.90
47162;DHT22;32921;53.256;8.198;2022-09-27T05:46:25;10.10;99.90
47162;DHT22;32921;53.256;8.198;2022-09-27T05:48:51;10.10;99.90
47162;DHT22;32921;53.256;8.198;2022-09-27T05:51:16;10.10;99.90
47162;DHT22;32921;53.256;8.198;2022-09-27T05:53:43;10.20;99.90
47162;DHT22;32921;53.256;8.198;2022-09-27T05:56:09;10.20;99.90
47162;DHT22;32921;53.256;8.198;2022-09-27T05:58:34;10.20;99.90
47162;DHT22;32921;53.256;8.198;2022-09-27T06:01:00;10.20;99.90
47162;DHT22;32921;53.256;8.198;2022-09-27T06:03:25;10.10;99.90
47162;DHT22;32921;53.256;8.198;2022-09-27T06:05:51;10.10;99.90
47162;DHT22;32921;53.256;8.198;2022-09-27T06:08:17;10.20;99.90
47162;DHT22;32921;53.256;8.198;2022-09-27T06:10:44;10.10;99.90
47162;DHT22;32921;53.256;8.198;2022-09-27T06:13:13;10.10;99.90
47162;DHT22;32921;53.256;8.198;2022-09-27T06:15:40;10.10;99.90
47162;DHT22;32921;53.256;8.198;2022-09-27T06:18:09;10.20;99.90
47162;DHT22;32921;53.256;8.198;2022-09-27T06:20:36;10.20;99.90
47162;DHT22;32921;53.256;8.198;2022-09-27T06:23:07;10.20;99.90
47162;DHT22;32921;53.256;8.198;2022-09-27T06:25:34;10.10;99.90
47162;DHT22;32921;53.256;8.198;2022-09-27T06:28:00;10.20;99.90
47162;DHT22;32921;53.256;8.198;2022-09-27T06:30:26;10.20;99.90
47162;DHT22;32921;53.256;8.198;2022-09-27T06:33:01;10.30;99.90
47162;DHT22;32921;53.256;8.198;2022-09-27T06:35:28;10.30;99.90
47162;DHT22;32921;53.256;8.198;2022-09-27T06:37:54;10.30;99.90
47162;DHT22;32921;53.256;8.198;2022-09-27T06:40:21;10.20;99.90
47162;DHT22;32921;53.256;8.198;2022-09-27T06:42:47;10.30;99.90
47162;DHT22;32921;53.256;8.198;2022-09-27T06:45:14;10.30;99.90
47162;DHT22;32921;53.256;8.198;2022-09-27T06:47:40;10.20;99.90
47162;DHT22;32921;53.256;8.198;2022-09-27T06:50:06;10.30;99.90
47162;DHT22;32921;53.256;8.198;2022-09-27T06:52:33;10.30;99.90
47162;DHT22;32921;53.256;8.198;2022-09-27T06:54:59;10.30;99.90
47162;DHT22;32921;53.256;8.198;2022-09-27T06:57:25;10.30;99.90
47162;DHT22;32921;53.256;8.198;2022-09-27T07:00:10;10.40;99.90
47162;DHT22;32921;53.256;8.198;2022-09-27T07:02:49;10.50;99.90
47162;DHT22;32921;53.256;8.198;2022-09-27T07:05:18;10.60;99.90
47162;DHT22;32921;53.256;8.198;2022-09-27T07:11:06;10.60;99.90
47162;DHT22;32921;53.256;8.198;2022-09-27T07:13:32;10.60;99.90
47162;DHT22;32921;53.256;8.198;2022-09-27T07:16:01;10.70;99.90
47162;DHT22;32921;53.256;8.198;2022-09-27T07:18:27;10.70;99.90
47162;DHT22;32921;53.256;8.198;2022-09-27T07:20:53;10.60;99.90
47162;DHT22;32921;53.256;8.198;2022-09-27T07:23:19;10.70;99.90
47162;DHT22;32921;53.256;8.198;2022-09-27T07:25:45;10.70;99.90
47162;DHT22;32921;53.256;8.198;2022-09-27T07:28:16;10.70;99.90
47162;DHT22;32921;53.256;8.198;2022-09-27T07:30:42;10.80;99.90
47162;DHT22;32921;53.256;8.198;2022-09-27T07:33:09;10.80;99.90
47162;DHT22;32921;53.256;8.198;2022-09-27T07:35:39;10.90;99.90
47162;DHT22;32921;53.256;8.198;2022-09-27T07:38:05;10.90;99.90
47162;DHT22;32921;53.256;8.198;2022-09-27T07:40:35;11.00;99.90
47162;DHT22;32921;53.256;8.198;2022-09-27T07:43:01;11.10;99.90
47162;DHT22;32921;53.256;8.198;2022-09-27T07:45:27;11.10;99.90
47162;DHT22;32921;53.256;8.198;2022-09-27T07:47:53;11.10;99.90
47162;DHT22;32921;53.256;8.198;2022-09-27T07:50:19;11.00;99.90
47162;DHT22;32921;53.256;8.198;2022-09-27T07:52:46;11.10;99.90
47162;DHT22;32921;53.256;8.198;2022-09-27T07:55:14;11.20;99.90
47162;DHT22;32921;53.256;8.198;2022-09-27T07:57:40;11.30;99.90
47162;DHT22;32921;53.256;8.198;2022-09-27T08:00:11;11.40;99.90
47162;DHT22;32921;53.256;8.198;2022-09-27T08:02:37;11.30;99.90
47162;DHT22;32921;53.256;8.198;2022-09-27T08:05:03;11.30;99.90
47162;DHT22;32921;53.256;8.198;2022-09-27T08:07:29;11.20;99.90
47162;DHT22;32921;53.256;8.198;2022-09-27T08:09:57;11.20;99.90
47162;DHT22;32921;53.256;8.198;2022-09-27T08:12:23;11.10;99.90
47162;DHT22;32921;53.256;8.198;2022-09-27T08:14:49;10.90;99.90
47162;DHT22;32921;53.256;8.198;2022-09-27T08:17:15;10.90;99.90
47162;DHT22;32921;53.256;8.198;2022-09-27T08:19:40;10.90;99.90
47162;DHT22;32921;53.256;8.198;2022-09-27T08:22:10;11.00;99.90
47162;DHT22;32921;53.256;8.198;2022-09-27T08:24:40;11.00;99.90
47162;DHT22;32921;53.256;8.198;2022-09-27T08:27:06;11.00;99.90
47162;DHT22;32921;53.256;8.198;2022-09-27T08:29:33;11.00;99.90
47162;DHT22;32921;53.256;8.198;2022-09-27T08:31:59;10.80;99.90
47162;DHT22;32921;53.256;8.198;2022-09-27T08:34:28;10.70;99.90
47162;DHT22;32921;53.256;8.198;2022-09-27T08:36:54;10.70;99.90
47162;DHT22;32921;53.256;8.198;2022-09-27T08:39:21;10.70;99.90
47162;DHT22;32921;53.256;8.198;2022-09-27T08:42:36;10.70;99.90
47162;DHT22;32921;53.256;8.198;2022-09-27T08:44:56;10.60;99.90
47162;DHT22;32921;53.256;8.198;2022-09-27T08:47:27;10.60;99.90
47162;DHT22;32921;53.256;8.198;2022-09-27T08:52:31;10.60;99.90
47162;DHT22;32921;53.256;8.198;2022-09-27T08:55:02;10.50;99.90
47162;DHT22;32921;53.256;8.198;2022-09-27T08:57:28;10.50;99.90
47162;DHT22;32921;53.256;8.198;2022-09-27T09:00:03;10.40;99.90
47162;DHT22;32921;53.256;8.198;2022-09-27T09:02:30;10.50;99.90
47162;DHT22;32921;53.256;8.198;2022-09-27T09:05:02;10.50;99.90
47162;DHT22;32921;53.256;8.198;2022-09-27T09:13:25;10.50;99.90
47162;DHT22;32921;53.256;8.198;2022-09-27T09:19:05;10.60;99.90
47162;DHT22;32921;53.256;8.198;2022-09-27T09:24:33;10.50;99.90
47162;DHT22;32921;53.256;8.198;2022-09-27T09:32:46;10.50;99.90
47162;DHT22;32921;53.256;8.198;2022-09-27T09:35:21;10.60;99.90
47162;DHT22;32921;53.256;8.198;2022-09-27T09:37:52;10.60;99.90
47162;DHT22;32921;53.256;8.198;2022-09-27T09:45:23;10.70;99.90
47162;DHT22;32921;53.256;8.198;2022-09-27T09:47:59;10.70;99.90
47162;DHT22;32921;53.256;8.198;2022-09-27T09:50:38;10.90;99.90
47162;DHT22;32921;53.256;8.198;2022-09-27T09:53:16;11.10;99.90
47162;DHT22;32921;53.256;8.198;2022-09-27T09:55:54;11.00;99.90
47162;DHT22;32921;53.256;8.198;2022-09-27T09:58:39;11.00;99.90
47162;DHT22;32921;53.256;8.198;2022-09-27T10:01:20;11.20;99.90
47162;DHT22;32921;53.256;8.198;2022-09-27T10:03:48;11.20;99.90
47162;DHT22;32921;53.256;8.198;2022-09-27T10:06:15;11.10;99.90
47162;DHT22;32921;53.256;8.198;2022-09-27T10:08:41;11.20;99.90
47162;DHT22;32921;53.256;8.198;2022-09-27T10:11:18;11.20;99.90
47162;DHT22;32921;53.256;8.198;2022-09-27T10:13:44;11.30;99.90
47162;DHT22;32921;53.256;8.198;2022-09-27T10:16:13;11.40;99.90
47162;DHT22;32921;53.256;8.198;2022-09-27T10:18:40;11.50;99.90
47162;DHT22;32921;53.256;8.198;2022-09-27T10:21:21;11.40;99.90
47162;DHT22;32921;53.256;8.198;2022-09-27T10:24:14;11.30;99.90
47162;DHT22;32921;53.256;8.198;2022-09-27T10:26:42;11.40;99.90
47162;DHT22;32921;53.256;8.198;2022-09-27T10:31:45;11.60;99.90
47162;DHT22;32921;53.256;8.198;2022-09-27T10:39:36;12.00;99.90
47162;DHT22;32921;53.256;8.198;2022-09-27T10:44:57;12.40;99.90
47162;DHT22;32921;53.256;8.198;2022-09-27T10:47:24;12.40;99.90
47162;DHT22;32921;53.256;8.198;2022-09-27T10:50:02;12.50;99.90
47162;DHT22;32921;53.256;8.198;2022-09-27T10:52:28;12.60;99.90
47162;DHT22;32921;53.256;8.198;2022-09-27T10:55:00;12.60;99.90
47162;DHT22;32921;53.256;8.198;2022-09-27T10:57:29;12.70;99.90
47162;DHT22;32921;53.256;8.198;2022-09-27T11:00:04;12.60;99.90
47162;DHT22;32921;53.256;8.198;2022-09-27T11:02:34;12.80;99.90
47162;DHT22;32921;53.256;8.198;2022-09-27T11:05:28;12.90;99.90
47162;DHT22;32921;53.256;8.198;2022-09-27T11:07:58;12.80;99.90
47162;DHT22;32921;53.256;8.198;2022-09-27T11:10:30;12.90;99.90
47162;DHT22;32921;53.256;8.198;2022-09-27T11:13:17;12.90;99.90
47162;DHT22;32921;53.256;8.198;2022-09-27T11:21:21;13.50;99.90
47162;DHT22;32921;53.256;8.198;2022-09-27T11:37:11;13.40;99.90
47162;DHT22;32921;53.256;8.198;2022-09-27T11:43:08;13.50;99.90
47162;DHT22;32921;53.256;8.198;2022-09-27T11:56:08;13.50;99.90
47162;DHT22;32921;53.256;8.198;2022-09-27T12:01:14;13.30;99.90
47162;DHT22;32921;53.256;8.198;2022-09-27T12:06:50;13.50;99.90
47162;DHT22;32921;53.256;8.198;2022-09-27T12:09:32;13.40;99.90
47162;DHT22;32921;53.256;8.198;2022-09-27T12:12:23;13.40;99.90
47162;DHT22;32921;53.256;8.198;2022-09-27T12:15:04;13.40;99.90
47162;DHT22;32921;53.256;8.198;2022-09-27T12:17:38;13.60;99.90
47162;DHT22;32921;53.256;8.198;2022-09-27T12:20:13;13.70;99.90
47162;DHT22;32921;53.256;8.198;2022-09-27T12:23:06;13.70;99.90
47162;DHT22;32921;53.256;8.198;2022-09-27T12:25:37;13.60;99.90
47162;DHT22;32921;53.256;8.198;2022-09-27T12:28:11;13.90;99.90
47162;DHT22;32921;53.256;8.198;2022-09-27T12:30:41;14.10;99.90
47162;DHT22;32921;53.256;8.198;2022-09-27T12:33:36;14.00;99.90
47162;DHT22;32921;53.256;8.198;2022-09-27T12:36:07;14.30;99.90
47162;DHT22;32921;53.256;8.198;2022-09-27T12:38:42;14.10;99.90
47162;DHT22;32921;53.256;8.198;2022-09-27T12:41:11;14.20;99.90
47162;DHT22;32921;53.256;8.198;2022-09-27T12:43:41;14.30;99.90
47162;DHT22;32921;53.256;8.198;2022-09-27T12:46:36;13.90;99.90
47162;DHT22;32921;53.256;8.198;2022-09-27T12:51:45;13.70;99.90
47162;DHT22;32921;53.256;8.198;2022-09-27T12:59:53;13.60;99.90
47162;DHT22;32921;53.256;8.198;2022-09-27T13:11:28;14.00;99.90
47162;DHT22;32921;53.256;8.198;2022-09-27T13:14:02;14.10;99.90
47162;DHT22;32921;53.256;8.198;2022-09-27T13:16:28;14.00;99.90
47162;DHT22;32921;53.256;8.198;2022-09-27T13:18:56;14.10;99.90
47162;DHT22;32921;53.256;8.198;2022-09-27T13:24:42;14.30;99.90
47162;DHT22;32921;53.256;8.198;2022-09-27T13:35:35;14.50;99.90
47162;DHT22;32921;53.256;8.198;2022-09-27T13:38:01;14.50;99.90
47162;DHT22;32921;53.256;8.198;2022-09-27T13:40:35;14.40;99.90
47162;DHT22;32921;53.256;8.198;2022-09-27T13:45:59;14.10;99.90
47162;DHT22;32921;53.256;8.198;2022-09-27T13:48:55;13.90;99.90
47162;DHT22;32921;53.256;8.198;2022-09-27T13:51:43;13.50;99.90
47162;DHT22;32921;53.256;8.198;2022-09-27T13:54:51;13.30;99.90
47162;DHT22;32921;53.256;8.198;2022-09-27T14:00:22;12.00;99.90
47162;DHT22;32921;53.256;8.198;2022-09-27T14:03:01;11.30;99.90
47162;DHT22;32921;53.256;8.198;2022-09-27T14:05:51;10.80;99.90
47162;DHT22;32921;53.256;8.198;2022-09-27T14:08:39;10.70;99.90
47162;DHT22;32921;53.256;8.198;2022-09-27T14:11:19;11.00;99.90
47162;DHT22;32921;53.256;8.198;2022-09-27T14:13:47;11.00;99.90
47162;DHT22;32921;53.256;8.198;2022-09-27T14:16:16;11.30;99.90
47162;DHT22;32921;53.256;8.198;2022-09-27T14:18:55;11.80;99.90
47162;DHT22;32921;53.256;8.198;2022-09-27T14:21:38;12.00;99.90
47162;DHT22;32921;53.256;8.198;2022-09-27T14:27:09;12.50;99.90
47162;DHT22;32921;53.256;8.198;2022-09-27T14:30:00;12.80;99.90
47162;DHT22;32921;53.256;8.198;2022-09-27T14:32:32;13.20;99.90
47162;DHT22;32921;53.256;8.198;2022-09-27T14:35:03;13.60;99.90
47162;DHT22;32921;53.256;8.198;2022-09-27T14:37:30;13.90;99.90
47162;DHT22;32921;53.256;8.198;2022-09-27T14:39:58;14.30;99.90
47162;DHT22;32921;53.256;8.198;2022-09-27T14:42:26;14.40;99.90
47162;DHT22;32921;53.256;8.198;2022-09-27T14:44:57;14.50;99.90
47162;DHT22;32921;53.256;8.198;2022-09-27T14:47:26;14.80;99.90
47162;DHT22;32921;53.256;8.198;2022-09-27T14:50:25;14.70;99.90
47162;DHT22;32921;53.256;8.198;2022-09-27T14:52:54;14.30;99.90
47162;DHT22;32921;53.256;8.198;2022-09-27T14:55:27;14.00;99.90
47162;DHT22;32921;53.256;8.198;2022-09-27T14:57:58;13.50;99.90
47162;DHT22;32921;53.256;8.198;2022-09-27T15:00:27;13.10;99.90
47162;DHT22;32921;53.256;8.198;2022-09-27T15:02:57;12.90;99.90
47162;DHT22;32921;53.256;8.198;2022-09-27T15:05:29;12.70;99.90
47162;DHT22;32921;53.256;8.198;2022-09-27T15:08:02;12.50;99.90
47162;DHT22;32921;53.256;8.198;2022-09-27T15:10:34;12.30;99.90
47162;DHT22;32921;53.256;8.198;2022-09-27T15:13:01;12.30;99.90
47162;DHT22;32921;53.256;8.198;2022-09-27T15:15:34;12.30;99.90
47162;DHT22;32921;53.256;8.198;2022-09-27T15:18:00;12.50;99.90
47162;DHT22;32921;53.256;8.198;2022-09-27T15:20:32;13.00;99.90
47162;DHT22;32921;53.256;8.198;2022-09-27T15:23:02;13.30;99.90
47162;DHT22;32921;53.256;8.198;2022-09-27T15:25:32;13.10;99.90
47162;DHT22;32921;53.256;8.198;2022-09-27T15:28:13;12.70;99.90
47162;DHT22;32921;53.256;8.198;2022-09-27T15:30:54;12.60;99.90
47162;DHT22;32921;53.256;8.198;2022-09-27T15:33:28;12.60;99.90
47162;DHT22;32921;53.256;8.198;2022-09-27T15:36:02;13.20;99.90
47162;DHT22;32921;53.256;8.198;2022-09-27T15:40:55;13.80;99.90
47162;DHT22;32921;53.256;8.198;2022-09-27T15:46:01;13.10;99.90
47162;DHT22;32921;53.256;8.198;2022-09-27T15:48:31;13.00;99.90
47162;DHT22;32921;53.256;8.198;2022-09-27T15:50:57;13.00;99.90
47162;DHT22;32921;53.256;8.198;2022-09-27T15:55:57;12.50;99.90
47162;DHT22;32921;53.256;8.198;2022-09-27T15:58:23;12.30;99.90
47162;DHT22;32921;53.256;8.198;2022-09-27T16:01:04;12.00;99.90
47162;DHT22;32921;53.256;8.198;2022-09-27T16:03:30;11.60;99.90
47162;DHT22;32921;53.256;8.198;2022-09-27T16:05:57;11.40;99.90
47162;DHT22;32921;53.256;8.198;2022-09-27T16:08:26;11.10;99.90
47162;DHT22;32921;53.256;8.198;2022-09-27T16:10:55;10.90;99.90
47162;DHT22;32921;53.256;8.198;2022-09-27T16:13:22;10.70;99.90
47162;DHT22;32921;53.256;8.198;2022-09-27T16:15:48;10.60;99.90
47162;DHT22;32921;53.256;8.198;2022-09-27T16:18:14;10.50;99.90
47162;DHT22;32921;53.256;8.198;2022-09-27T16:20:40;10.60;99.90
47162;DHT22;32921;53.256;8.198;2022-09-27T16:23:06;10.70;99.90
47162;DHT22;32921;53.256;8.198;2022-09-27T16:25:33;10.80;99.90
47162;DHT22;32921;53.256;8.198;2022-09-27T16:28:00;10.80;99.90
47162;DHT22;32921;53.256;8.198;2022-09-27T16:30:26;10.70;99.90
47162;DHT22;32921;53.256;8.198;2022-09-27T16:32:52;10.80;99.90
47162;DHT22;32921;53.256;8.198;2022-09-27T16:35:19;10.70;99.90
47162;DHT22;32921;53.256;8.198;2022-09-27T16:37:46;10.60;99.90
47162;DHT22;32921;53.256;8.198;2022-09-27T16:40:13;10.40;99.90
47162;DHT22;32921;53.256;8.198;2022-09-27T16:42:41;10.30;99.90
47162;DHT22;32921;53.256;8.198;2022-09-27T16:45:08;10.20;99.90
47162;DHT22;32921;53.256;8.198;2022-09-27T16:47:34;10.20;99.90
47162;DHT22;32921;53.256;8.198;2022-09-27T16:50:00;10.10;99.90
47162;DHT22;32921;53.256;8.198;2022-09-27T16:52:44;9.90;99.90
47162;DHT22;32921;53.256;8.198;2022-09-27T16:55:14;9.80;99.90
47162;DHT22;32921;53.256;8.198;2022-09-27T16:57:43;9.80;99.90
47162;DHT22;32921;53.256;8.198;2022-09-27T17:00:08;9.70;99.90
47162;DHT22;32921;53.256;8.198;2022-09-27T17:02:34;9.70;99.90
47162;DHT22;32921;53.256;8.198;2022-09-27T17:05:01;9.60;99.90
47162;DHT22;32921;53.256;8.198;2022-09-27T17:07:27;9.40;99.90
47162;DHT22;32921;53.256;8.198;2022-09-27T17:09:52;9.40;99.90
47162;DHT22;32921;53.256;8.198;2022-09-27T17:12:19;9.40;99.90
47162;DHT22;32921;53.256;8.198;2022-09-27T17:14:45;9.30;99.90
47162;DHT22;32921;53.256;8.198;2022-09-27T17:17:10;9.10;99.90
47162;DHT22;32921;53.256;8.198;2022-09-27T17:19:36;9.00;99.90
47162;DHT22;32921;53.256;8.198;2022-09-27T17:22:06;9.00;99.90
47162;DHT22;32921;53.256;8.198;2022-09-27T17:24:33;8.90;99.90
47162;DHT22;32921;53.256;8.198;2022-09-27T17:26:59;9.00;99.90
47162;DHT22;32921;53.256;8.198;2022-09-27T17:29:25;8.90;99.90
47162;DHT22;32921;53.256;8.198;2022-09-27T17:31:51;8.70;99.90
47162;DHT22;32921;53.256;8.198;2022-09-27T17:34:16;8.60;99.90
47162;DHT22;32921;53.256;8.198;2022-09-27T17:36:43;8.50;99.90
47162;DHT22;32921;53.256;8.198;2022-09-27T17:39:17;8.30;99.90
47162;DHT22;32921;53.256;8.198;2022-09-27T17:41:43;8.30;99.90
47162;DHT22;32921;53.256;8.198;2022-09-27T17:44:12;8.20;99.90
47162;DHT22;32921;53.256;8.198;2022-09-27T17:46:39;8.30;99.90
47162;DHT22;32921;53.256;8.198;2022-09-27T17:49:05;8.30;99.90
47162;DHT22;32921;53.256;8.198;2022-09-27T17:51:51;8.20;99.90
47162;DHT22;32921;53.256;8.198;2022-09-27T17:54:20;8.40;99.90
47162;DHT22;32921;53.256;8.198;2022-09-27T17:56:47;8.50;99.90
47162;DHT22;32921;53.256;8.198;2022-09-27T17:59:14;8.50;99.90
47162;DHT22;32921;53.256;8.198;2022-09-27T18:01:41;8.50;99.90
47162;DHT22;32921;53.256;8.198;2022-09-27T18:04:09;8.40;99.90
47162;DHT22;32921;53.256;8.198;2022-09-27T18:06:42;8.40;99.90
47162;DHT22;32921;53.256;8.198;2022-09-27T18:09:10;8.50;99.90
47162;DHT22;32921;53.256;8.198;2022-09-27T18:11:37;8.40;99.90
47162;DHT22;32921;53.256;8.198;2022-09-27T18:14:03;8.30;99.90
47162;DHT22;32921;53.256;8.198;2022-09-27T18:16:31;8.30;99.90
47162;DHT22;32921;53.256;8.198;2022-09-27T18:19:00;8.30;99.90
47162;DHT22;32921;53.256;8.198;2022-09-27T18:21:27;8.20;99.90
47162;DHT22;32921;53.256;8.198;2022-09-27T18:23:55;8.10;99.90
47162;DHT22;32921;53.256;8.198;2022-09-27T18:26:25;8.00;99.90
47162;DHT22;32921;53.256;8.198;2022-09-27T18:28:53;8.00;99.90
47162;DHT22;32921;53.256;8.198;2022-09-27T18:31:20;8.10;99.90
47162;DHT22;32921;53.256;8.198;2022-09-27T18:33:49;8.10;99.90
47162;DHT22;32921;53.256;8.198;2022-09-27T18:36:17;7.90;99.90
47162;DHT22;32921;53.256;8.198;2022-09-27T18:38:45;8.00;99.90
47162;DHT22;32921;53.256;8.198;2022-09-27T18:41:13;7.90;99.90
47162;DHT22;32921;53.256;8.198;2022-09-27T18:43:40;7.90;99.90